createdAt,value
2023-01-11T00:00:01.426Z,4.4
2023-01-11T00:05:01.277Z,4.4
2023-01-11T00:10:01.371Z,4.4
2023-01-11T00:15:01.212Z,4.4
2023-01-11T00:20:01.391Z,4.4
2023-01-11T00:25:01.470Z,4.4
2023-01-11T00:30:01.416Z,4.4
2023-01-11T00:35:00.922Z,4.4
2023-01-11T00:40:02.008Z,4.4
2023-01-11T00:45:01.439Z,4.5
2023-01-11T00:50:01.263Z,4.4
2023-01-11T01:00:01.418Z,4.4
2023-01-11T01:05:01.171Z,4.4
2023-01-11T01:10:01.417Z,4.4
2023-01-11T01:15:02.038Z,4.4
2023-01-11T01:25:01.222Z,4.4
2023-01-11T01:30:01.110Z,4.4
2023-01-11T01:35:01.723Z,4.4
2023-01-11T01:40:01.500Z,4.5
2023-01-11T01:45:01.408Z,4.5
2023-01-11T01:50:01.702Z,4.4
2023-01-11T01:55:01.221Z,4.4
2023-01-11T02:00:01.216Z,4.4
2023-01-11T02:05:01.193Z,4.4
2023-01-11T02:10:01.358Z,4.4
2023-01-11T02:15:01.421Z,4.4
2023-01-11T02:20:02.138Z,4.4
2023-01-11T02:25:01.167Z,4.4
2023-01-11T02:30:01.135Z,4.4
2023-01-11T02:35:01.456Z,4.5
2023-01-11T02:40:01.372Z,4.5
2023-01-11T02:45:01.423Z,4.4
2023-01-11T02:50:01.134Z,4.4
2023-01-11T02:55:01.213Z,4.4
2023-01-11T03:00:01.228Z,4.4
2023-01-11T03:05:00.862Z,4.5
2023-01-11T03:10:01.375Z,4.5
2023-01-11T03:15:01.319Z,4.5
2023-01-11T03:25:01.205Z,4.4
2023-01-11T03:30:01.092Z,4.5
2023-01-11T03:35:00.865Z,4.4
2023-01-11T03:40:01.398Z,4.5
2023-01-11T03:45:01.182Z,4.4
2023-01-11T03:50:01.455Z,4.4
2023-01-11T03:55:01.226Z,4.4
2023-01-11T04:00:01.483Z,4.4
2023-01-11T04:05:01.235Z,4.4
2023-01-11T04:10:01.393Z,4.5
2023-01-11T04:15:01.557Z,4.5
2023-01-11T04:25:01.218Z,4.5
2023-01-11T04:30:01.342Z,4.5
2023-01-11T04:35:01.645Z,4.5
2023-01-11T04:40:02.059Z,4.5
2023-01-11T04:50:01.658Z,4.6
2023-01-11T04:55:01.205Z,4.6
2023-01-11T05:00:01.478Z,4.6
2023-01-11T05:05:01.173Z,4.6
2023-01-11T05:10:01.366Z,4.6
2023-01-11T05:15:01.731Z,4.6
2023-01-11T05:20:01.365Z,4.6
2023-01-11T05:25:01.279Z,4.6
2023-01-11T05:30:01.965Z,4.6
2023-01-11T05:35:01.884Z,4.6
2023-01-11T05:55:01.216Z,4.6
2023-01-11T06:00:01.410Z,4.7
2023-01-11T06:05:01.127Z,4.8
2023-01-11T06:10:01.144Z,4.7
2023-01-11T06:15:01.336Z,4.7
2023-01-11T06:25:01.188Z,4.7
2023-01-11T06:35:00.884Z,4.6
2023-01-11T06:40:01.327Z,4.7
2023-01-11T06:45:01.716Z,4.6
2023-01-11T06:50:01.439Z,4.7
2023-01-11T07:10:01.924Z,4.7
2023-01-11T07:15:02.113Z,4.7
2023-01-11T07:20:01.383Z,4.7
2023-01-11T07:25:01.124Z,4.7
2023-01-11T07:30:01.404Z,4.7
2023-01-11T07:35:01.600Z,4.7
2023-01-11T07:40:01.220Z,4.7
2023-01-11T07:45:01.379Z,4.7
2023-01-11T07:50:01.388Z,4.8
2023-01-11T07:55:00.903Z,4.8
2023-01-11T08:00:01.422Z,4.8
2023-01-11T08:05:03.135Z,4.8
2023-01-11T08:10:01.345Z,4.9
2023-01-11T08:15:01.319Z,4.9
2023-01-11T08:20:01.323Z,4.9
2023-01-11T08:25:01.210Z,4.9
2023-01-11T08:30:01.321Z,5
2023-01-11T08:35:01.140Z,5
2023-01-11T08:40:01.382Z,5
2023-01-11T08:45:01.356Z,5
2023-01-11T08:50:01.338Z,5.1
2023-01-11T08:55:01.161Z,5.1
2023-01-11T09:00:01.410Z,5.2
2023-01-11T09:05:01.193Z,5.2
2023-01-11T09:10:01.281Z,5.2
2023-01-11T09:15:01.179Z,5.3
2023-01-11T09:20:01.357Z,5.3
2023-01-11T09:25:00.910Z,5.3
2023-01-11T09:30:01.371Z,5.4
2023-01-11T09:35:00.914Z,5.4
2023-01-11T09:40:01.300Z,5.5
2023-01-11T09:45:01.389Z,5.5
2023-01-11T09:50:01.394Z,5.5
2023-01-11T09:55:01.138Z,5.5
2023-01-11T10:00:01.388Z,5.5
2023-01-11T10:05:01.219Z,5.6
2023-01-11T10:18:21.434Z,5.5
2023-01-11T10:25:01.114Z,5.6
2023-01-11T10:30:01.337Z,5.5
2023-01-11T10:35:01.153Z,5.5
2023-01-11T10:40:01.381Z,5.5
2023-01-11T10:45:01.394Z,5.5
2023-01-11T10:50:01.491Z,5.5
2023-01-11T10:55:01.215Z,5.6
2023-01-11T11:00:01.403Z,5.6
2023-01-11T11:05:00.941Z,5.8
2023-01-11T11:10:01.305Z,5.8
2023-01-11T11:15:01.430Z,5.9
2023-01-11T11:20:01.301Z,5.8
2023-01-11T11:25:01.141Z,5.7
2023-01-11T11:30:01.384Z,5.7
2023-01-11T11:35:01.133Z,5.8
2023-01-11T11:40:01.295Z,5.9
2023-01-11T11:45:01.298Z,6
2023-01-11T11:50:01.376Z,6
2023-01-11T11:55:01.184Z,6
2023-01-11T12:00:01.382Z,6
2023-01-11T12:05:01.212Z,6.1
2023-01-11T12:10:01.116Z,6.2
2023-01-11T12:15:01.376Z,6.1
2023-01-11T12:20:01.366Z,6.1
2023-01-11T12:25:01.167Z,6.1
2023-01-11T12:30:01.312Z,6.2
2023-01-11T12:35:01.150Z,6.2
2023-01-11T12:40:01.434Z,6.1
2023-01-11T12:45:01.390Z,6.2
2023-01-11T12:50:01.497Z,6.2
2023-01-11T12:55:01.180Z,6.1
2023-01-11T13:00:01.399Z,6.1
2023-01-11T13:05:01.159Z,6.2
2023-01-11T13:10:01.376Z,6.2
2023-01-11T13:15:01.357Z,6.2
2023-01-11T13:20:01.432Z,6.2
2023-01-11T13:25:01.172Z,6.2
2023-01-11T13:30:01.881Z,6.2
2023-01-11T13:35:01.168Z,6.2
2023-01-11T13:40:01.354Z,6.2
2023-01-11T13:45:01.381Z,6.2
2023-01-11T13:50:01.349Z,6.2
2023-01-11T13:55:01.201Z,6.3
2023-01-11T14:00:01.324Z,6.3
2023-01-11T14:05:01.164Z,6.4
2023-01-11T14:10:01.320Z,6.4
2023-01-11T14:15:01.363Z,6.4
2023-01-11T14:20:01.259Z,6.4
2023-01-11T14:25:01.186Z,6.4
2023-01-11T14:30:01.145Z,6.4
2023-01-11T14:35:01.097Z,6.5
2023-01-11T14:40:01.250Z,6.5
2023-01-11T14:45:01.363Z,6.5
2023-01-11T14:50:01.340Z,6.5
2023-01-11T14:55:01.231Z,6.5
2023-01-11T15:00:01.361Z,6.5
2023-01-11T15:05:01.233Z,6.5
2023-01-11T15:10:01.474Z,6.5
2023-01-11T15:15:01.424Z,6.6
2023-01-11T15:20:01.329Z,6.6
2023-01-11T15:25:01.156Z,6.7
2023-01-11T15:30:01.321Z,6.7
2023-01-11T15:35:01.105Z,6.7
2023-01-11T15:40:01.287Z,6.7
2023-01-11T15:45:01.392Z,6.7
2023-01-11T15:50:01.279Z,6.8
2023-01-11T15:55:01.174Z,6.8
2023-01-11T16:00:01.417Z,6.8
2023-01-11T16:05:00.925Z,6.8
2023-01-11T16:10:01.278Z,6.8
2023-01-11T16:15:01.099Z,6.8
2023-01-11T16:20:01.348Z,6.8
2023-01-11T16:25:01.221Z,6.8
2023-01-11T16:30:01.238Z,6.8
2023-01-11T16:35:01.112Z,6.8
2023-01-11T16:40:01.370Z,6.8
2023-01-11T16:45:01.388Z,6.8
2023-01-11T16:50:01.272Z,6.8
2023-01-11T16:55:01.110Z,6.8
2023-01-11T17:00:01.354Z,6.9
2023-01-11T17:05:01.164Z,6.9
2023-01-11T17:10:01.406Z,7
2023-01-11T17:15:01.394Z,7
2023-01-11T17:20:01.324Z,7
2023-01-11T17:35:01.158Z,7
2023-01-11T17:40:01.317Z,7
2023-01-11T17:50:01.185Z,6.9
2023-01-11T18:05:01.480Z,6.9
2023-01-11T18:10:03.700Z,6.9
2023-01-11T18:15:01.471Z,6.9
2023-01-11T18:20:02.032Z,6.9
2023-01-11T18:25:01.179Z,6.9
2023-01-11T18:30:01.825Z,6.9
2023-01-11T18:40:02.017Z,6.9
2023-01-11T18:45:01.767Z,6.8
2023-01-11T18:50:01.383Z,6.8
2023-01-11T18:55:01.167Z,6.8
2023-01-11T19:00:01.451Z,6.7
2023-01-11T19:05:01.194Z,6.7
2023-01-11T19:10:01.410Z,6.7
2023-01-11T19:15:01.457Z,6.6
2023-01-11T19:20:01.204Z,6.6
2023-01-11T19:25:01.206Z,6.6
2023-01-11T19:30:01.414Z,6.6
2023-01-11T19:35:01.185Z,6.5
2023-01-11T19:40:01.389Z,6.5
2023-01-11T19:45:01.398Z,6.5
2023-01-11T19:50:01.470Z,6.5
2023-01-11T19:55:01.169Z,6.4
2023-01-11T20:00:01.569Z,6.3
2023-01-11T20:05:01.169Z,6.3
2023-01-11T20:10:01.453Z,6.2
2023-01-11T20:15:01.474Z,6.2
2023-01-11T20:20:01.492Z,6.2
2023-01-11T20:25:01.152Z,6.1
2023-01-11T20:30:01.457Z,6
2023-01-11T20:35:01.174Z,6.1
2023-01-11T20:40:01.390Z,6.1
2023-01-11T20:45:01.389Z,6.1
2023-01-11T20:50:01.436Z,6.1
2023-01-11T20:55:01.104Z,6
2023-01-11T21:00:01.464Z,6
2023-01-11T21:05:01.157Z,6.1
2023-01-11T21:10:01.457Z,6.1
2023-01-11T21:15:01.381Z,6
2023-01-11T21:20:01.358Z,5.9
2023-01-11T21:25:01.120Z,5.9
2023-01-11T21:30:01.148Z,5.9
2023-01-11T21:35:01.183Z,5.9
2023-01-11T21:40:01.394Z,5.9
2023-01-11T21:45:01.449Z,6
2023-01-11T21:50:01.559Z,6
2023-01-11T21:55:00.940Z,6
2023-01-11T22:00:01.425Z,6
2023-01-11T22:05:01.238Z,6
2023-01-11T22:10:05.355Z,5.9
2023-01-11T22:15:01.483Z,5.8
2023-01-11T22:20:01.191Z,5.7
2023-01-11T22:25:01.170Z,5.7
2023-01-11T22:30:01.406Z,5.6
2023-01-11T22:35:01.156Z,5.6
2023-01-11T22:40:01.632Z,5.5
2023-01-11T22:45:01.398Z,5.5
2023-01-11T22:50:01.405Z,5.4
2023-01-11T22:55:01.139Z,5.4
2023-01-11T23:00:01.448Z,5.4
2023-01-11T23:05:00.923Z,5.4
2023-01-11T23:10:01.346Z,5.4
2023-01-11T23:15:01.420Z,5.4
2023-01-11T23:20:02.134Z,5.4
2023-01-11T23:25:01.613Z,5.4
2023-01-11T23:30:01.761Z,5.4
2023-01-11T23:35:01.227Z,5.5
2023-01-11T23:40:01.175Z,5.6
2023-01-11T23:45:02.123Z,5.7
2023-01-11T23:50:01.871Z,5.8
